Time;durP1;ratioP1;P1;durP2;ratioP2;P2;SDS_P1;SDS_P2;PMS_P1;PMS_P2;Temp;Humidity;BMP_temperature;BMP_pressure;BME280_temperature;BME280_humidity;BME280_pressure;Samples;Min_cycle;Max_cycle;Signal;HPM_P1;HPM_P2
2022/06/06 00:01:57;;;;;;;3.33;2.90;;;;;;;15.63;100.00;98185.87;1702976;81;28005;-85
2022/06/06 00:04:29;;;;;;;4.65;3.37;;;;;;;15.79;100.00;98187.40;1708411;81;28117;-85
2022/06/06 00:07:02;;;;;;;4.17;3.77;;;;;;;15.88;100.00;98190.47;1707420;82;28076;-86
2022/06/06 00:09:32;;;;;;;3.77;2.92;;;;;;;15.92;100.00;98186.59;1709087;82;28040;-86
2022/06/06 00:12:00;;;;;;;5.05;3.33;;;;;;;15.84;100.00;98189.11;1707424;81;28061;-85
2022/06/06 00:14:26;;;;;;;4.72;2.62;;;;;;;15.90;100.00;98195.96;1702380;81;28024;-85
2022/06/06 00:16:56;;;;;;;3.35;2.60;;;;;;;15.88;100.00;98194.43;1705191;81;28024;-88
2022/06/06 00:19:26;;;;;;;3.33;3.02;;;;;;;15.83;100.00;98191.40;1677991;84;28087;-83
2022/06/06 00:21:53;;;;;;;3.80;2.90;;;;;;;15.77;100.00;98186.70;1707760;82;28070;-83
2022/06/06 00:24:23;;;;;;;3.33;3.00;;;;;;;15.70;100.00;98181.20;1701491;82;28231;-83
2022/06/06 00:26:52;;;;;;;3.70;2.90;;;;;;;15.61;100.00;98171.50;1708257;82;28080;-82
2022/06/06 00:29:21;;;;;;;3.33;2.70;;;;;;;15.53;100.00;98168.77;1706603;82;28078;-83
2022/06/06 00:34:55;;;;;;;5.28;3.15;;;;;;;15.43;100.00;98156.08;1705758;82;28142;-83
2022/06/06 00:37:28;;;;;;;3.22;2.92;;;;;;;15.37;100.00;98150.89;1698232;82;28097;-86
2022/06/06 00:39:56;;;;;;;5.67;3.27;;;;;;;15.35;100.00;98155.46;1698348;82;28080;-85
2022/06/06 00:42:31;;;;;;;4.22;2.87;;;;;;;15.37;100.00;98152.69;1707762;82;28203;-85
2022/06/06 00:45:27;;;;;;;3.05;2.80;;;;;;;15.38;100.00;98151.72;1702300;82;28077;-86
2022/06/06 00:48:17;;;;;;;2.75;2.55;;;;;;;15.41;100.00;98156.70;1704890;82;28158;-86
2022/06/06 00:50:50;;;;;;;3.90;3.12;;;;;;;15.53;100.00;98161.34;1703438;82;28139;-84
2022/06/06 00:53:20;;;;;;;4.10;3.45;;;;;;;15.74;100.00;98177.28;1705927;82;28410;-84
2022/06/06 00:55:50;;;;;;;5.45;3.90;;;;;;;15.78;100.00;98180.45;1706846;82;28065;-83
2022/06/06 00:58:25;;;;;;;4.90;3.47;;;;;;;15.77;100.00;98179.62;1707963;82;28111;-84
2022/06/06 01:00:52;;;;;;;4.83;3.37;;;;;;;15.79;100.00;98180.80;1705872;82;28155;-84
2022/06/06 01:03:23;;;;;;;4.22;3.30;;;;;;;15.82;100.00;98176.05;1704680;82;28149;-84
2022/06/06 01:05:50;;;;;;;5.95;2.95;;;;;;;15.79;100.00;98181.63;1704039;82;28111;-84
2022/06/06 01:08:19;;;;;;;3.62;2.90;;;;;;;15.81;100.00;98178.86;1700920;82;28069;-85
2022/06/06 01:10:48;;;;;;;3.47;3.08;;;;;;;15.77;100.00;98180.94;1709197;82;28136;-85
2022/06/06 01:13:17;;;;;;;4.95;3.02;;;;;;;15.70;100.00;98177.73;1708768;82;28100;-85
2022/06/06 01:15:56;;;;;;;3.75;3.00;;;;;;;15.67;100.00;98178.00;1707382;82;28073;-85
2022/06/06 01:18:48;;;;;;;3.72;2.92;;;;;;;15.72;100.00;98177.91;1708706;82;28274;-85
2022/06/06 01:21:27;;;;;;;4.42;3.05;;;;;;;15.63;100.00;98174.00;1702663;82;28045;-83
2022/06/06 01:24:15;;;;;;;2.98;2.70;;;;;;;15.63;100.00;98170.88;1705562;82;28207;-83
2022/06/06 01:27:19;;;;;;;2.98;2.67;;;;;;;15.49;100.00;98169.49;1703657;82;28208;-83
2022/06/06 01:29:53;;;;;;;3.70;2.83;;;;;;;15.62;100.00;98172.33;1702559;82;28061;-82
2022/06/06 01:32:22;;;;;;;4.33;2.80;;;;;;;15.76;100.00;98175.83;1701556;82;28006;-83
2022/06/06 01:34:50;;;;;;;3.67;2.87;;;;;;;15.79;100.00;98171.08;1700775;82;28079;-83
2022/06/06 01:37:32;;;;;;;5.30;3.40;;;;;;;15.83;100.00;98180.84;1700362;82;28044;-83
2022/06/06 01:40:01;;;;;;;3.87;3.10;;;;;;;15.89;100.00;98181.09;1706460;82;28040;-83
2022/06/06 01:42:37;;;;;;;3.02;2.62;;;;;;;15.93;100.00;98182.94;1708534;82;28081;-87
2022/06/06 01:45:10;;;;;;;3.02;2.72;;;;;;;15.94;100.00;98189.05;1707395;82;28075;-83
2022/06/06 01:47:52;;;;;;;5.33;3.50;;;;;;;15.84;100.00;98188.63;1708805;82;28110;-83
2022/06/06 01:50:21;;;;;;;3.30;2.92;;;;;;;15.79;100.00;98190.88;1706869;82;28080;-83
2022/06/06 01:52:53;;;;;;;3.10;2.90;;;;;;;15.81;100.00;98191.57;1708761;82;28111;-83
2022/06/06 01:55:25;;;;;;;5.10;3.08;;;;;;;15.89;100.00;98195.61;1709048;82;28088;-83
2022/06/06 01:57:57;;;;;;;3.37;2.50;;;;;;;15.93;100.00;98190.86;1704778;82;27994;-85
2022/06/06 02:00:23;;;;;;;4.42;2.92;;;;;;;15.97;100.00;98196.22;1705049;82;28096;-85
2022/06/06 02:02:50;;;;;;;3.08;2.62;;;;;;;16.06;100.00;98194.00;1708601;82;28047;-85
2022/06/06 02:05:16;;;;;;;4.75;3.00;;;;;;;16.13;100.00;98191.12;1711424;82;28178;-85
2022/06/06 02:07:44;;;;;;;3.35;3.05;;;;;;;16.18;100.00;98187.55;1708808;82;28076;-85
2022/06/06 02:10:12;;;;;;;2.80;2.58;;;;;;;16.24;100.00;98192.73;1709891;82;28088;-85
2022/06/06 02:12:41;;;;;;;3.47;2.60;;;;;;;16.31;100.00;98188.48;1702566;82;28107;-85
2022/06/06 02:15:09;;;;;;;3.33;2.90;;;;;;;16.41;100.00;98185.81;1706617;82;28066;-85
2022/06/06 02:17:35;;;;;;;3.27;2.90;;;;;;;16.46;100.00;98180.42;1701469;82;28107;-85
2022/06/06 02:20:04;;;;;;;3.58;2.90;;;;;;;16.53;100.00;98181.97;1706309;82;28174;-85
2022/06/06 02:22:31;;;;;;;3.20;2.90;;;;;;;16.59;100.00;98182.70;1706190;82;28163;-85
2022/06/06 02:25:01;;;;;;;3.40;3.00;;;;;;;16.68;100.00;98181.81;1705157;82;27997;-82
2022/06/06 02:27:27;;;;;;;3.55;3.00;;;;;;;16.70;100.00;98179.83;1703396;82;28088;-82
2022/06/06 02:29:53;;;;;;;3.50;3.00;;;;;;;16.71;100.00;98180.17;1708605;82;28072;-83
2022/06/06 02:32:22;;;;;;;5.12;3.20;;;;;;;16.73;100.00;98185.66;1709093;82;28076;-83
2022/06/06 02:34:49;;;;;;;2.95;2.72;;;;;;;16.75;100.00;98178.08;1702964;82;28055;-88
2022/06/06 02:37:15;;;;;;;3.00;2.65;;;;;;;16.76;100.00;98183.19;1701967;82;28073;-88
2022/06/06 02:39:42;;;;;;;2.70;2.50;;;;;;;16.78;100.00;98183.88;1699778;82;28135;-88
2022/06/06 02:42:14;;;;;;;3.55;2.85;;;;;;;16.81;100.00;98182.73;1703593;82;28057;-88
2022/06/06 02:44:40;;;;;;;3.12;2.80;;;;;;;16.84;100.00;98178.47;1708473;82;28088;-84
2022/06/06 02:47:07;;;;;;;4.05;2.95;;;;;;;16.86;100.00;98183.93;1700766;82;28009;-85
2022/06/06 02:49:34;;;;;;;4.95;3.05;;;;;;;16.91;100.00;98180.34;1708703;82;28252;-87
2022/06/06 02:52:03;;;;;;;6.10;2.77;;;;;;;16.96;100.00;98178.58;1708400;82;28107;-88
2022/06/06 02:54:30;;;;;;;3.62;3.12;;;;;;;16.95;100.00;98169.81;1708331;82;28040;-87
2022/06/06 02:56:58;;;;;;;3.47;3.12;;;;;;;16.98;100.00;98173.95;1707204;82;28148;-86
2022/06/06 02:59:28;;;;;;;5.50;2.80;;;;;;;16.92;100.00;98172.75;1702062;82;28096;-83
2022/06/06 03:01:55;;;;;;;3.20;2.80;;;;;;;16.87;100.00;98167.09;1700169;82;28071;-84
2022/06/06 03:04:21;;;;;;;3.50;3.17;;;;;;;16.91;100.00;98175.56;1702163;82;28014;-83
2022/06/06 03:06:51;;;;;;;4.20;2.87;;;;;;;16.91;100.00;98175.05;1708206;82;28169;-85
2022/06/06 03:10:01;;;;;;;2.95;2.65;;;;;;;16.92;100.00;98183.81;1708506;82;28091;-86
2022/06/06 03:12:49;;;;;;;4.28;3.02;;;;;;;16.91;100.00;98182.98;1707742;82;28115;-89
2022/06/06 03:15:20;;;;;;;4.37;3.15;;;;;;;16.92;100.00;98187.28;1701914;82;28148;-89
2022/06/06 03:20:47;;;;;;;3.40;3.10;;;;;;;16.93;100.00;98164.33;1703876;82;49926;-85
2022/06/06 03:23:26;;;;;;;6.55;2.70;;;;;;;17.10;100.00;98191.23;1702037;82;28069;-86
2022/06/06 03:26:14;;;;;;;3.22;2.92;;;;;;;17.15;100.00;98185.83;1709075;82;28206;-84
2022/06/06 03:29:18;;;;;;;3.47;3.12;;;;;;;17.17;100.00;98192.78;1700546;82;28057;-83
2022/06/06 03:31:59;;;;;;;5.10;3.00;;;;;;;17.22;100.00;98197.11;1702605;82;28096;-83
2022/06/06 03:34:44;;;;;;;;;;;;;;;17.26;100.00;98199.78;1704867;82;28167;-83
2022/06/06 03:37:48;;;;;;;4.53;3.20;;;;;;;17.20;100.00;98202.55;1700797;82;22103;-83
2022/06/06 03:40:17;;;;;;;3.42;2.95;;;;;;;17.26;100.00;98201.09;1703329;82;28081;-84
2022/06/06 03:43:07;;;;;;;4.30;3.05;;;;;;;17.27;100.00;98198.31;1701420;82;28209;-84
2022/06/06 03:45:43;;;;;;;5.03;3.42;;;;;;;17.26;100.00;98202.42;1703529;82;28188;-83
2022/06/06 03:48:23;;;;;;;4.95;3.33;;;;;;;17.19;100.00;98194.76;1704383;82;28120;-86
2022/06/06 03:51:05;;;;;;;3.83;2.87;;;;;;;17.24;100.00;98205.21;1700261;82;28076;-84
2022/06/06 03:53:38;;;;;;;6.75;3.75;;;;;;;17.28;100.00;98199.14;1706663;82;28134;-86
2022/06/06 03:56:14;;;;;;;4.92;3.00;;;;;;;17.20;100.00;98187.17;1701502;82;28066;-86
2022/06/06 03:58:42;;;;;;;3.12;2.83;;;;;;;17.04;100.00;98191.84;1702516;82;28006;-87
2022/06/06 04:01:10;;;;;;;3.12;2.83;;;;;;;17.04;100.00;98187.39;1701338;83;28147;-88
2022/06/06 04:03:39;;;;;;;3.50;2.90;;;;;;;17.10;100.00;98187.27;1708627;82;28073;-89
2022/06/06 04:06:05;;;;;;;3.30;2.95;;;;;;;16.99;100.00;98187.02;1707961;82;28170;-89
2022/06/06 04:08:32;;;;;;;3.20;2.90;;;;;;;16.86;100.00;98185.25;1707609;82;28069;-86
2022/06/06 04:11:27;;;;;;;2.92;2.72;;;;;;;16.94;100.00;98187.14;1709259;82;28006;-85
2022/06/06 04:14:09;;;;;;;3.52;3.00;;;;;;;17.03;100.00;98186.22;1707548;82;28095;-85
2022/06/06 04:16:51;;;;;;;3.10;2.80;;;;;;;16.99;100.00;98174.30;1704290;82;28068;-85
2022/06/06 04:19:42;;;;;;;4.47;3.20;;;;;;;17.04;100.00;98175.50;1677145;83;28071;-83
2022/06/06 04:22:26;;;;;;;4.37;3.10;;;;;;;17.17;100.00;98176.42;1676852;83;28168;-83
2022/06/06 04:24:58;;;;;;;3.02;2.83;;;;;;;17.31;100.00;98184.27;1719819;81;28096;-82
2022/06/06 04:27:44;;;;;;;3.50;3.20;;;;;;;17.45;100.00;98181.07;1721986;81;28087;-83
2022/06/06 04:30:29;;;;;;;3.37;3.08;;;;;;;17.55;100.00;98185.75;1691382;82;28010;-87
2022/06/06 04:33:11;;;;;;;3.87;2.95;;;;;;;17.67;100.00;98182.38;1713994;81;28129;-83
2022/06/06 04:35:48;;;;;;;;;;;;;;;17.77;100.00;98180.44;1723905;81;27996;-83
2022/06/06 04:38:23;;;;;;;3.35;3.05;;;;;;;17.84;100.00;98182.77;1686343;83;20227;-84
2022/06/06 04:40:56;;;;;;;3.80;3.37;;;;;;;17.81;100.00;98185.75;1721719;81;28111;-87
2022/06/06 04:43:38;;;;;;;3.37;2.98;;;;;;;17.79;100.00;98183.25;1719991;81;28171;-84
2022/06/06 04:46:14;;;;;;;3.60;3.30;;;;;;;17.87;100.00;98184.63;1717496;81;28060;-85
2022/06/06 04:48:44;;;;;;;3.33;3.02;;;;;;;17.96;100.00;98188.95;1720820;81;28571;-85
2022/06/06 04:51:14;;;;;;;3.80;3.35;;;;;;;18.06;100.00;98190.14;1723143;81;28051;-84
2022/06/06 04:53:44;;;;;;;3.95;3.42;;;;;;;18.02;100.00;98191.95;1719363;81;28117;-83
2022/06/06 04:56:15;;;;;;;5.47;3.37;;;;;;;17.98;100.00;98193.61;1714834;81;28143;-83
2022/06/06 04:58:43;;;;;;;5.58;3.62;;;;;;;17.92;100.00;98192.09;1724908;81;28203;-84
2022/06/06 05:01:11;;;;;;;4.20;3.60;;;;;;;17.97;100.00;98188.47;1721508;81;28079;-87
2022/06/06 05:03:38;;;;;;;4.25;3.50;;;;;;;18.05;100.00;98197.78;1719650;81;28025;-87
2022/06/06 05:06:23;;;;;;;4.05;3.65;;;;;;;18.17;100.00;98194.31;1717502;81;28142;-88
2022/06/06 05:09:08;;;;;;;3.70;3.40;;;;;;;18.23;100.00;98199.81;1719831;81;28098;-88
2022/06/06 05:11:57;;;;;;;4.25;3.55;;;;;;;18.31;100.00;98201.17;1695122;82;28079;-88
2022/06/06 05:14:59;;;;;;;6.40;3.87;;;;;;;18.45;100.00;98205.00;1718810;81;28118;-88
2022/06/06 05:17:32;;;;;;;3.83;3.52;;;;;;;18.57;100.00;98213.02;1722453;81;28074;-83
2022/06/06 05:20:02;;;;;;;4.45;3.72;;;;;;;18.84;100.00;98216.36;1713210;81;28104;-84
2022/06/06 05:22:52;;;;;;;5.70;4.25;;;;;;;19.00;100.00;98218.53;1696585;82;28123;-83
2022/06/06 05:25:34;;;;;;;3.98;3.40;;;;;;;19.17;100.00;98215.38;1705077;82;28068;-87
2022/06/06 05:28:07;;;;;;;;;;;;;;;19.35;100.00;98210.73;1704347;82;28126;-84
2022/06/06 05:30:45;;;;;;;4.25;3.80;;;;;;;19.50;100.00;98205.09;1705041;81;20137;-83
2022/06/06 05:33:21;;;;;;;3.62;3.33;;;;;;;19.62;100.00;98205.08;1702601;82;28056;-83
2022/06/06 05:36:03;;;;;;;4.65;3.62;;;;;;;19.73;100.00;98208.38;1702544;81;28070;-84
2022/06/06 05:38:39;;;;;;;3.70;3.40;;;;;;;19.85;100.00;98209.17;1701997;83;28072;-84
2022/06/06 05:41:21;;;;;;;4.47;4.08;;;;;;;19.97;100.00;98208.28;1700258;82;28159;-84
2022/06/06 05:43:56;;;;;;;4.28;3.85;;;;;;;20.00;100.00;98215.42;1700413;82;28021;-84
2022/06/06 05:47:01;;;;;;;5.10;3.62;;;;;;;20.07;100.00;98213.41;1706525;82;28247;-84
2022/06/06 05:49:47;;;;;;;6.08;4.30;;;;;;;20.18;100.00;98225.82;1707212;81;28100;-85
2022/06/06 05:52:27;;;;;;;6.40;4.72;;;;;;;20.19;100.00;98230.61;1699751;82;28080;-87
2022/06/06 05:55:17;;;;;;;4.90;4.47;;;;;;;20.29;100.00;98228.59;1703268;81;28100;-83
2022/06/06 05:58:20;;;;;;;4.90;4.40;;;;;;;20.41;100.00;98229.88;1705846;81;28130;-85
2022/06/06 06:00:56;;;;;;;4.58;3.62;;;;;;;20.46;100.00;98228.34;1703887;82;28108;-87
2022/06/06 06:03:26;;;;;;;6.42;5.15;;;;;;;20.54;100.00;98238.13;1701863;81;28116;-88
2022/06/06 06:06:02;;;;;;;4.10;3.67;;;;;;;20.63;100.00;98240.22;1700415;82;28107;-83
2022/06/06 06:08:44;;;;;;;4.10;3.70;;;;;;;20.69;100.00;98239.52;1702757;82;28079;-85
2022/06/06 06:11:39;;;;;;;5.12;4.20;;;;;;;20.75;100.00;98234.84;1699386;81;28103;-85
2022/06/06 06:14:24;;;;;;;4.28;3.87;;;;;;;20.80;100.00;98237.30;1699143;82;28092;-85
2022/06/06 06:16:54;;;;;;;4.42;4.03;;;;;;;20.84;100.00;98231.94;1695012;81;28148;-83
2022/06/06 06:19:24;;;;;;;4.15;3.45;;;;;;;20.89;100.00;98233.56;1701313;82;28208;-84
2022/06/06 06:21:57;;;;;;;4.42;4.03;;;;;;;20.97;100.00;98236.68;1700024;83;28222;-84
2022/06/06 06:24:29;;;;;;;6.30;4.30;;;;;;;21.06;100.00;98237.44;1701982;82;28077;-84
2022/06/06 06:26:57;;;;;;;4.62;4.22;;;;;;;21.12;100.00;98235.39;1702419;83;28083;-85
2022/06/06 06:29:27;;;;;;;4.28;3.87;;;;;;;21.21;100.00;98239.70;1703411;82;28103;-84
2022/06/06 06:32:05;;;;;;;4.40;3.77;;;;;;;21.26;100.00;98239.48;1703964;82;28080;-88
2022/06/06 06:34:53;;;;;;;4.15;3.75;;;;;;;21.30;100.00;98242.61;1705757;82;28156;-85
2022/06/06 06:37:52;;;;;;;3.90;3.60;;;;;;;21.36;100.00;98239.73;1678154;83;28050;-89
2022/06/06 06:40:31;;;;;;;4.12;3.72;;;;;;;21.33;100.00;98239.58;1705900;82;28093;-89
2022/06/06 06:43:04;;;;;;;5.12;4.22;;;;;;;21.34;100.00;98246.55;1700682;82;28149;-84
2022/06/06 06:45:50;;;;;;;4.87;4.30;;;;;;;21.38;100.00;98243.88;1681019;83;28178;-86
2022/06/06 06:48:25;;;;;;;5.05;4.35;;;;;;;21.39;100.00;98250.01;1701211;82;28131;-85
2022/06/06 06:50:56;;;;;;;6.12;3.80;;;;;;;21.40;100.00;98241.02;1705254;82;28100;-86
2022/06/06 06:53:28;;;;;;;5.75;4.25;;;;;;;21.43;100.00;98240.67;1710428;82;28291;-85
2022/06/06 06:56:13;;;;;;;4.40;3.95;;;;;;;21.55;100.00;98242.70;1708651;82;28092;-85
2022/06/06 06:58:46;;;;;;;5.20;4.50;;;;;;;21.65;100.00;98244.62;1701834;82;28188;-83
2022/06/06 07:01:19;;;;;;;5.12;4.45;;;;;;;21.73;100.00;98237.03;1677735;83;28193;-83
2022/06/06 07:10:16;;;;;;;5.55;4.25;;;;;;;22.04;100.00;98241.72;1702230;82;28097;-84
2022/06/06 07:12:49;;;;;;;4.92;3.90;;;;;;;22.12;100.00;98238.14;1708114;82;28118;-83
2022/06/06 07:15:34;;;;;;;7.40;4.62;;;;;;;22.18;100.00;98233.41;1706845;82;28080;-85
2022/06/06 07:18:04;;;;;;;4.40;3.90;;;;;;;22.23;100.00;98236.34;1702634;82;28098;-83
2022/06/06 07:20:40;;;;;;;4.75;4.35;;;;;;;22.34;100.00;98236.37;1704840;82;28148;-88
2022/06/06 07:23:11;;;;;;;5.87;4.35;;;;;;;22.41;100.00;98238.12;1713516;82;28088;-84
2022/06/06 07:25:40;;;;;;;5.37;4.37;;;;;;;22.44;100.00;98238.23;1711831;81;28110;-85
2022/06/06 07:28:13;;;;;;;5.25;4.47;;;;;;;22.52;100.00;98235.47;1711213;81;28064;-84
2022/06/06 07:30:54;;;;;;;5.70;4.50;;;;;;;22.64;99.85;98232.61;1712018;82;28029;-84
2022/06/06 07:33:21;;;;;;;6.35;4.35;;;;;;;22.78;99.76;98229.12;1712288;81;28344;-85
2022/06/06 07:35:57;;;;;;;7.78;4.90;;;;;;;22.90;99.36;98234.28;1708708;81;28109;-88
2022/06/06 07:38:39;;;;;;;5.08;4.60;;;;;;;23.01;99.01;98232.95;1713319;81;28096;-85
2022/06/06 07:41:32;;;;;;;4.85;4.33;;;;;;;23.07;98.08;98231.36;1713449;82;28083;-84
2022/06/06 07:44:19;;;;;;;7.12;4.50;;;;;;;23.10;97.26;98226.96;1710580;82;28021;-86
2022/06/06 07:46:50;;;;;;;5.28;4.78;;;;;;;23.11;96.84;98230.78;1716857;81;28082;-86
2022/06/06 07:49:19;;;;;;;4.58;2.98;;;;;;;23.19;96.38;98231.14;1715401;81;28163;-85
2022/06/06 07:51:50;;;;;;;4.62;3.80;;;;;;;23.24;95.93;98225.55;1716098;81;28093;-88
2022/06/06 07:54:38;;;;;;;7.70;4.35;;;;;;;23.28;95.61;98226.83;1710306;81;28036;-88
2022/06/06 07:57:14;;;;;;;4.50;4.10;;;;;;;23.40;95.69;98226.31;1711303;81;28107;-89
2022/06/06 07:59:53;;;;;;;5.60;4.40;;;;;;;23.48;95.24;98229.69;1705929;82;28096;-84
2022/06/06 08:02:43;;;;;;;5.03;3.95;;;;;;;23.59;94.80;98225.66;1714470;82;28206;-85
2022/06/06 08:05:39;;;;;;;4.75;3.92;;;;;;;23.65;94.31;98219.53;1712416;82;28101;-84
2022/06/06 08:08:24;;;;;;;5.05;4.22;;;;;;;23.72;93.74;98221.25;1710106;82;28152;-88
2022/06/06 08:10:50;;;;;;;5.40;4.22;;;;;;;23.84;93.42;98226.05;1709220;82;28084;-88
2022/06/06 08:13:38;;;;;;;6.40;4.17;;;;;;;23.97;93.09;98222.92;1716463;82;28049;-88
2022/06/06 08:16:23;;;;;;;4.55;4.15;;;;;;;24.07;92.71;98227.40;1715119;82;28079;-83
2022/06/06 08:18:53;;;;;;;5.00;4.50;;;;;;;24.14;91.92;98222.09;1714530;82;28068;-84
2022/06/06 08:21:23;;;;;;;5.33;4.78;;;;;;;24.16;91.03;98230.24;1704436;82;28097;-88
2022/06/06 08:23:52;;;;;;;5.37;4.22;;;;;;;24.22;90.28;98227.29;1712344;82;28039;-88
2022/06/06 08:26:20;;;;;;;5.58;4.22;;;;;;;24.24;89.40;98227.92;1703846;82;28030;-88
2022/06/06 08:28:48;;;;;;;4.60;4.20;;;;;;;24.28;89.14;98232.35;1709268;81;28151;-85
2022/06/06 08:31:15;;;;;;;4.60;4.20;;;;;;;24.32;88.68;98225.61;1708318;82;28137;-85
2022/06/06 08:33:41;;;;;;;6.90;3.77;;;;;;;24.39;88.27;98229.11;1712313;81;28199;-88
2022/06/06 08:36:32;;;;;;;7.22;5.00;;;;;;;24.41;87.61;98233.25;1711061;82;28069;-89
2022/06/06 08:39:17;;;;;;;3.20;2.45;;;;;;;24.38;86.97;98230.98;1715182;82;28082;-85
2022/06/06 08:42:05;;;;;;;4.65;4.03;;;;;;;24.48;86.35;98227.42;1708215;82;28091;-89
2022/06/06 08:44:43;;;;;;;4.65;3.72;;;;;;;24.48;85.87;98229.27;1712204;81;28192;-89
2022/06/06 08:47:32;;;;;;;5.12;4.10;;;;;;;24.66;85.89;98224.16;1703868;82;27999;-84
2022/06/06 08:53:12;;;;;;;4.85;3.60;;;;;;;24.94;85.38;98226.73;1711333;82;28107;-89
2022/06/06 08:56:16;;;;;;;4.20;3.80;;;;;;;25.04;84.86;98231.72;1711531;82;28115;-89
2022/06/06 08:58:51;;;;;;;5.20;3.83;;;;;;;25.14;84.36;98225.45;1711302;81;28259;-89
2022/06/06 09:01:44;;;;;;;4.10;3.80;;;;;;;25.25;83.50;98228.34;1690036;81;28133;-88
2022/06/06 09:04:29;;;;;;;4.12;3.72;;;;;;;25.34;82.88;98225.77;1705761;81;28029;-84
2022/06/06 09:07:19;;;;;;;4.62;3.50;;;;;;;25.38;82.48;98221.62;1685528;81;28073;-88
2022/06/06 09:09:49;;;;;;;4.22;3.92;;;;;;;25.34;81.71;98223.59;1711104;81;28101;-88
2022/06/06 09:12:26;;;;;;;4.22;3.83;;;;;;;25.30;80.55;98224.53;1711107;81;28097;-88
2022/06/06 09:15:12;;;;;;;5.78;4.17;;;;;;;25.38;80.00;98225.65;1711984;81;28122;-84
2022/06/06 09:17:52;;;;;;;4.00;3.70;;;;;;;25.52;79.90;98225.15;1709468;81;28159;-84
2022/06/06 09:20:48;;;;;;;5.00;4.20;;;;;;;25.65;79.61;98222.47;1700843;81;28082;-88
2022/06/06 09:23:32;;;;;;;4.22;3.92;;;;;;;25.69;78.47;98218.88;1686630;83;28150;-88
2022/06/06 09:26:04;;;;;;;4.30;3.90;;;;;;;25.79;77.94;98219.27;1680996;83;28126;-88
2022/06/06 09:28:49;;;;;;;7.05;4.17;;;;;;;25.82;77.35;98216.98;1679728;84;28236;-89
2022/06/06 09:31:31;;;;;;;5.90;3.87;;;;;;;25.88;76.87;98213.16;1656006;83;28097;-89
2022/06/06 09:34:18;;;;;;;3.90;3.50;;;;;;;26.01;76.98;98220.66;1683550;83;28105;-84
2022/06/06 09:37:00;;;;;;;4.10;3.70;;;;;;;26.15;76.00;98208.84;1648975;85;28067;-84
2022/06/06 09:39:36;;;;;;;4.08;3.77;;;;;;;26.31;75.00;98202.21;1649589;85;28104;-85
2022/06/06 09:42:40;;;;;;;3.70;3.40;;;;;;;26.43;73.92;98216.62;1648270;85;28104;-88
2022/06/06 09:45:31;;;;;;;5.85;3.92;;;;;;;26.53;73.46;98216.16;1651344;85;28089;-84
2022/06/06 09:48:18;;;;;;;4.15;3.75;;;;;;;26.59;72.97;98212.62;1680711;83;28071;-84
2022/06/06 09:51:04;;;;;;;3.98;3.58;;;;;;;26.65;72.64;98217.13;1681837;83;28117;-85
2022/06/06 10:00:18;;;;;;;4.30;3.40;;;;;;;26.41;68.68;98212.48;1684763;83;28165;-84
2022/06/06 10:03:12;;;;;;;4.92;3.45;;;;;;;26.32;68.21;98207.89;1680172;83;28165;-84
2022/06/06 10:05:58;;;;;;;4.55;2.75;;;;;;;26.22;67.50;98216.40;1685499;83;28110;-84
2022/06/06 10:08:44;;;;;;;5.00;3.37;;;;;;;26.06;66.39;98218.17;1679627;83;28052;-89
2022/06/06 10:11:19;;;;;;;3.10;2.75;;;;;;;25.95;65.35;98214.80;1679906;83;28191;-84
2022/06/06 10:14:07;;;;;;;3.42;3.12;;;;;;;25.88;65.02;98213.16;1682238;83;28109;-84
2022/06/06 10:16:52;;;;;;;4.35;3.02;;;;;;;25.86;64.66;98215.23;1646172;85;28083;-89
2022/06/06 10:19:52;;;;;;;4.47;3.25;;;;;;;25.84;64.13;98210.08;1686272;83;28173;-85
2022/06/06 10:22:42;;;;;;;2.80;2.60;;;;;;;25.88;63.88;98213.98;1699604;82;28004;-84
2022/06/06 10:25:21;;;;;;;4.35;3.47;;;;;;;25.99;64.03;98207.97;1703543;82;28095;-84
2022/06/06 10:27:57;;;;;;;3.45;3.15;;;;;;;26.11;64.60;98200.92;1691388;82;28118;-89
2022/06/06 10:30:49;;;;;;;3.25;2.80;;;;;;;26.17;64.23;98199.26;1695376;82;28093;-84
2022/06/06 10:33:22;;;;;;;3.75;2.80;;;;;;;26.28;64.00;98201.31;1706233;81;28129;-89
2022/06/06 10:36:11;;;;;;;3.85;3.00;;;;;;;26.40;63.85;98202.81;1702139;81;28070;-85
2022/06/06 10:39:04;;;;;;;3.17;2.90;;;;;;;26.50;63.55;98197.29;1709642;81;28092;-90
2022/06/06 10:41:52;;;;;;;3.27;2.95;;;;;;;26.64;63.52;98192.14;1709507;82;28068;-85
2022/06/06 10:44:43;;;;;;;3.35;3.05;;;;;;;26.74;62.48;98202.41;1702937;82;28065;-86
2022/06/06 10:47:42;;;;;;;3.27;2.63;;;;;;;26.80;61.75;98197.52;1700487;82;27998;-85
2022/06/06 10:50:14;;;;;;;3.72;2.80;;;;;;;26.85;61.43;98191.50;1705674;82;28087;-89
2022/06/06 10:53:05;;;;;;;3.02;2.77;;;;;;;26.84;60.69;98199.27;1708061;82;28073;-85
2022/06/06 10:56:07;;;;;;;3.10;2.90;;;;;;;26.80;60.12;98198.86;1702992;82;28116;-85
2022/06/06 10:58:56;;;;;;;2.98;2.77;;;;;;;26.81;59.80;98187.09;1707127;81;28174;-85
2022/06/06 11:01:46;;;;;;;2.60;2.40;;;;;;;26.79;59.35;98189.67;1700846;82;28177;-85
2022/06/06 11:04:22;;;;;;;3.30;2.95;;;;;;;26.78;59.17;98192.08;1704806;83;28197;-85
2022/06/06 11:07:12;;;;;;;3.65;2.83;;;;;;;26.85;59.18;98182.09;1704564;83;28042;-85
2022/06/06 11:10:00;;;;;;;5.90;3.00;;;;;;;26.95;59.31;98190.52;1707995;82;28489;-85
2022/06/06 11:12:50;;;;;;;2.87;2.58;;;;;;;26.97;58.88;98183.91;1704443;82;28068;-85
2022/06/06 11:15:21;;;;;;;3.67;3.15;;;;;;;27.02;58.50;98181.91;1700525;82;28079;-85
2022/06/06 11:18:07;;;;;;;2.92;2.60;;;;;;;27.10;58.03;98191.58;1706526;82;28119;-86
2022/06/06 11:20:57;;;;;;;4.50;3.10;;;;;;;27.11;57.77;98184.65;1705315;82;28081;-84
2022/06/06 11:23:36;;;;;;;5.62;2.77;;;;;;;27.10;57.33;98190.23;1719295;82;28080;-84
2022/06/06 11:26:17;;;;;;;3.00;2.62;;;;;;;26.98;57.02;98185.56;1718928;81;28017;-85
2022/06/06 11:28:56;;;;;;;3.00;2.70;;;;;;;26.91;57.70;98187.46;1713748;82;28054;-89
2022/06/06 11:31:36;;;;;;;2.65;2.40;;;;;;;26.74;58.30;98188.98;1655145;85;28166;-84
2022/06/06 11:34:34;;;;;;;4.58;2.50;;;;;;;26.66;59.54;98189.25;1672211;84;28158;-84
2022/06/06 11:37:10;;;;;;;4.22;2.50;;;;;;;26.50;60.14;98190.58;1719764;83;28069;-84
2022/06/06 11:40:04;;;;;;;3.75;2.45;;;;;;;26.46;60.94;98189.34;1720014;82;28177;-85
2022/06/06 11:42:43;;;;;;;3.17;2.58;;;;;;;26.43;61.41;98188.95;1719383;81;28092;-85
2022/06/06 11:45:19;;;;;;;4.30;3.05;;;;;;;26.35;62.34;98185.98;1719785;82;28031;-89
2022/06/06 11:47:52;;;;;;;3.45;3.00;;;;;;;26.30;63.21;98186.31;1719752;82;28151;-84
2022/06/06 11:50:55;;;;;;;2.87;2.67;;;;;;;26.23;64.29;98187.20;1719637;81;28074;-84
2022/06/06 11:53:48;;;;;;;4.12;2.90;;;;;;;26.13;64.74;98184.63;1719253;83;28072;-85
2022/06/06 11:56:39;;;;;;;3.98;2.60;;;;;;;26.12;65.98;98189.16;1719780;81;28088;-88
2022/06/06 11:59:25;;;;;;;2.80;2.50;;;;;;;26.12;66.83;98193.19;1719910;81;28178;-85
2022/06/06 12:02:07;;;;;;;3.30;2.47;;;;;;;26.05;67.20;98192.38;1716770;82;28151;-85
2022/06/06 12:04:49;;;;;;;3.15;1.65;;;;;;;25.95;67.95;98196.02;1719806;83;28128;-85
2022/06/06 12:07:34;;;;;;;3.15;1.98;;;;;;;25.92;68.89;98192.41;1719770;82;28088;-84
2022/06/06 12:10:18;;;;;;;1.87;1.62;;;;;;;25.82;69.37;98194.70;1669441;83;28084;-89
2022/06/06 12:13:05;;;;;;;1.90;1.45;;;;;;;25.81;70.33;98198.41;1719408;81;28100;-84
2022/06/06 12:15:51;;;;;;;3.05;1.50;;;;;;;25.82;71.32;98192.85;1717705;82;28186;-85
2022/06/06 12:18:56;;;;;;;2.75;1.25;;;;;;;25.77;72.19;98195.34;1719973;83;28194;-84
2022/06/06 12:21:44;;;;;;;1.82;1.02;;;;;;;25.65;72.78;98194.84;1713076;81;28351;-88
2022/06/06 12:24:17;;;;;;;3.35;1.30;;;;;;;25.49;73.15;98195.23;1670177;83;28156;-89
2022/06/06 12:27:17;;;;;;;2.42;1.42;;;;;;;25.37;73.71;98198.54;1669577;84;28150;-89
2022/06/06 12:30:04;;;;;;;2.77;1.90;;;;;;;25.27;74.36;98201.33;1669974;83;28085;-83
2022/06/06 12:32:44;;;;;;;4.40;2.10;;;;;;;25.20;74.97;98199.19;1669548;83;28127;-85
2022/06/06 12:35:23;;;;;;;4.50;2.47;;;;;;;25.05;75.24;98195.34;1672270;83;28030;-89
2022/06/06 12:38:08;;;;;;;2.92;1.30;;;;;;;25.00;75.89;98196.47;1670714;83;28138;-89
2022/06/06 12:40:50;;;;;;;1.85;1.42;;;;;;;24.93;76.49;98203.66;1674507;83;28069;-85
2022/06/06 12:43:30;;;;;;;1.87;1.22;;;;;;;24.81;76.96;98201.27;1668762;84;28106;-85
2022/06/06 12:46:34;;;;;;;1.50;1.40;;;;;;;24.66;77.33;98197.94;1668327;83;28199;-86